Terminal Aerodrome Forecast
Issued by NWS Charleston, WV

Current Version | Previous Version | Graphics & Text | Print | Product List | Glossary On
Versions: 1 2 3 4 5 6 7 8 9 10 11 12 13 14 15 16 17 18 19 20 21 22 23 24
904
FTUS41 KRLX 200902 AAA
TAFHTS
TAF AMD
KHTS 200902Z 2009/2106 00000KT P6SM FEW250
     FM201600 18006KT P6SM BKN070
     FM210000 20006KT 6SM -SHRA OVC040
     FM210400 23007KT 5SM -SHRA OVC030=

USA.gov is the U.S. government's official web portal to all federal, state and local government web resources and services.